sensor_id;sensor_type;location;lat;lon;timestamp;P1;durP1;ratioP1;P2;durP2;ratioP2
36963;SDS011;22878;48.616;35.326;2022-12-11T00:00:11;66.35;;;17.55;;
36963;SDS011;22878;48.616;35.326;2022-12-11T00:02:38;72.12;;;17.85;;
36963;SDS011;22878;48.616;35.326;2022-12-11T00:05:04;63.10;;;17.32;;
36963;SDS011;22878;48.616;35.326;2022-12-11T00:07:30;61.53;;;17.48;;
36963;SDS011;22878;48.616;35.326;2022-12-11T00:09:55;64.12;;;18.55;;
36963;SDS011;22878;48.616;35.326;2022-12-11T00:12:21;51.98;;;16.85;;
36963;SDS011;22878;48.616;35.326;2022-12-11T00:14:46;65.15;;;18.60;;
36963;SDS011;22878;48.616;35.326;2022-12-11T00:17:12;65.40;;;16.17;;
36963;SDS011;22878;48.616;35.326;2022-12-11T00:19:37;50.83;;;16.90;;
36963;SDS011;22878;48.616;35.326;2022-12-11T00:22:03;61.85;;;17.07;;
36963;SDS011;22878;48.616;35.326;2022-12-11T00:24:28;61.95;;;18.12;;
36963;SDS011;22878;48.616;35.326;2022-12-11T00:26:54;60.40;;;16.52;;
36963;SDS011;22878;48.616;35.326;2022-12-11T00:29:19;54.45;;;16.57;;
36963;SDS011;22878;48.616;35.326;2022-12-11T00:31:45;70.60;;;18.02;;
36963;SDS011;22878;48.616;35.326;2022-12-11T00:34:10;53.75;;;16.27;;
36963;SDS011;22878;48.616;35.326;2022-12-11T00:36:36;62.70;;;17.10;;
36963;SDS011;22878;48.616;35.326;2022-12-11T00:39:02;69.82;;;17.50;;
36963;SDS011;22878;48.616;35.326;2022-12-11T00:41:28;60.12;;;16.55;;
36963;SDS011;22878;48.616;35.326;2022-12-11T00:43:53;63.98;;;17.07;;
36963;SDS011;22878;48.616;35.326;2022-12-11T00:46:19;72.12;;;17.45;;
36963;SDS011;22878;48.616;35.326;2022-12-11T00:48:44;59.67;;;17.07;;
36963;SDS011;22878;48.616;35.326;2022-12-11T00:51:10;63.23;;;16.97;;
36963;SDS011;22878;48.616;35.326;2022-12-11T00:53:37;60.25;;;16.95;;
36963;SDS011;22878;48.616;35.326;2022-12-11T00:56:08;67.08;;;16.82;;
36963;SDS011;22878;48.616;35.326;2022-12-11T00:58:29;67.90;;;18.60;;
36963;SDS011;22878;48.616;35.326;2022-12-11T01:00:55;63.55;;;17.77;;
36963;SDS011;22878;48.616;35.326;2022-12-11T01:03:22;76.28;;;18.17;;
36963;SDS011;22878;48.616;35.326;2022-12-11T01:05:51;69.47;;;17.20;;
36963;SDS011;22878;48.616;35.326;2022-12-11T01:08:17;53.42;;;16.70;;
36963;SDS011;22878;48.616;35.326;2022-12-11T01:10:43;57.78;;;16.57;;
36963;SDS011;22878;48.616;35.326;2022-12-11T01:13:08;70.05;;;17.45;;
36963;SDS011;22878;48.616;35.326;2022-12-11T01:15:38;59.42;;;15.88;;
36963;SDS011;22878;48.616;35.326;2022-12-11T01:18:04;62.80;;;16.17;;
36963;SDS011;22878;48.616;35.326;2022-12-11T01:20:29;68.47;;;16.48;;
36963;SDS011;22878;48.616;35.326;2022-12-11T01:22:56;64.50;;;16.77;;
36963;SDS011;22878;48.616;35.326;2022-12-11T01:25:22;58.08;;;15.50;;
36963;SDS011;22878;48.616;35.326;2022-12-11T01:27:51;47.08;;;15.28;;
36963;SDS011;22878;48.616;35.326;2022-12-11T01:30:17;52.08;;;14.28;;
36963;SDS011;22878;48.616;35.326;2022-12-11T01:32:42;52.27;;;14.53;;
36963;SDS011;22878;48.616;35.326;2022-12-11T01:35:09;46.35;;;13.95;;
36963;SDS011;22878;48.616;35.326;2022-12-11T01:37:35;47.73;;;13.53;;
36963;SDS011;22878;48.616;35.326;2022-12-11T01:40:00;52.38;;;13.60;;
36963;SDS011;22878;48.616;35.326;2022-12-11T01:42:26;44.50;;;13.65;;
36963;SDS011;22878;48.616;35.326;2022-12-11T01:47:37;43.75;;;15.03;;
36963;SDS011;22878;48.616;35.326;2022-12-11T01:50:03;37.48;;;13.55;;
36963;SDS011;22878;48.616;35.326;2022-12-11T01:52:29;42.98;;;13.70;;
36963;SDS011;22878;48.616;35.326;2022-12-11T01:54:54;47.65;;;14.38;;
36963;SDS011;22878;48.616;35.326;2022-12-11T01:57:20;51.83;;;12.82;;
36963;SDS011;22878;48.616;35.326;2022-12-11T01:59:45;44.67;;;12.35;;
36963;SDS011;22878;48.616;35.326;2022-12-11T02:04:38;40.23;;;13.35;;
36963;SDS011;22878;48.616;35.326;2022-12-11T02:07:06;39.80;;;12.25;;
36963;SDS011;22878;48.616;35.326;2022-12-11T02:23:02;38.45;;;11.85;;
36963;SDS011;22878;48.616;35.326;2022-12-11T02:25:29;36.85;;;11.60;;
36963;SDS011;22878;48.616;35.326;2022-12-11T02:30:37;27.58;;;11.05;;
36963;SDS011;22878;48.616;35.326;2022-12-11T02:33:04;31.33;;;11.48;;
36963;SDS011;22878;48.616;35.326;2022-12-11T02:35:34;38.02;;;11.40;;
36963;SDS011;22878;48.616;35.326;2022-12-11T02:40:37;30.12;;;10.55;;
36963;SDS011;22878;48.616;35.326;2022-12-11T02:43:05;27.15;;;10.40;;
36963;SDS011;22878;48.616;35.326;2022-12-11T02:45:31;29.30;;;11.15;;
36963;SDS011;22878;48.616;35.326;2022-12-11T02:47:58;38.33;;;11.75;;
36963;SDS011;22878;48.616;35.326;2022-12-11T02:50:25;34.78;;;11.30;;
36963;SDS011;22878;48.616;35.326;2022-12-11T02:52:52;37.78;;;11.25;;
36963;SDS011;22878;48.616;35.326;2022-12-11T02:55:18;36.38;;;11.83;;
36963;SDS011;22878;48.616;35.326;2022-12-11T03:00:47;31.05;;;11.75;;
36963;SDS011;22878;48.616;35.326;2022-12-11T03:03:12;33.42;;;11.73;;
36963;SDS011;22878;48.616;35.326;2022-12-11T03:05:38;39.33;;;11.35;;
36963;SDS011;22878;48.616;35.326;2022-12-11T03:08:04;38.60;;;11.95;;
36963;SDS011;22878;48.616;35.326;2022-12-11T03:10:29;42.10;;;12.55;;
36963;SDS011;22878;48.616;35.326;2022-12-11T03:12:55;37.17;;;12.47;;
36963;SDS011;22878;48.616;35.326;2022-12-11T03:15:22;42.53;;;12.80;;
36963;SDS011;22878;48.616;35.326;2022-12-11T03:17:53;37.88;;;12.03;;
36963;SDS011;22878;48.616;35.326;2022-12-11T03:20:20;44.05;;;12.88;;
36963;SDS011;22878;48.616;35.326;2022-12-11T03:25:30;42.25;;;13.85;;
36963;SDS011;22878;48.616;35.326;2022-12-11T03:27:57;52.15;;;15.20;;
36963;SDS011;22878;48.616;35.326;2022-12-11T03:35:54;60.60;;;17.12;;
36963;SDS011;22878;48.616;35.326;2022-12-11T03:38:22;64.95;;;18.07;;
36963;SDS011;22878;48.616;35.326;2022-12-11T03:40:48;317.13;;;84.67;;
36963;SDS011;22878;48.616;35.326;2022-12-11T03:43:15;211.00;;;60.92;;
36963;SDS011;22878;48.616;35.326;2022-12-11T03:45:41;262.82;;;87.15;;
36963;SDS011;22878;48.616;35.326;2022-12-11T03:48:07;201.77;;;74.72;;
36963;SDS011;22878;48.616;35.326;2022-12-11T03:50:33;72.00;;;23.98;;
36963;SDS011;22878;48.616;35.326;2022-12-11T03:52:59;78.25;;;31.35;;
36963;SDS011;22878;48.616;35.326;2022-12-11T03:55:25;65.47;;;23.57;;
36963;SDS011;22878;48.616;35.326;2022-12-11T03:57:52;53.75;;;17.30;;
36963;SDS011;22878;48.616;35.326;2022-12-11T04:00:18;86.82;;;29.30;;
36963;SDS011;22878;48.616;35.326;2022-12-11T04:02:44;71.05;;;28.07;;
36963;SDS011;22878;48.616;35.326;2022-12-11T04:05:11;62.05;;;19.70;;
36963;SDS011;22878;48.616;35.326;2022-12-11T04:07:37;71.28;;;25.50;;
36963;SDS011;22878;48.616;35.326;2022-12-11T04:10:03;61.83;;;17.65;;
36963;SDS011;22878;48.616;35.326;2022-12-11T04:12:29;76.33;;;25.48;;
36963;SDS011;22878;48.616;35.326;2022-12-11T04:14:54;60.30;;;22.20;;
36963;SDS011;22878;48.616;35.326;2022-12-11T04:17:26;56.55;;;18.20;;
36963;SDS011;22878;48.616;35.326;2022-12-11T04:20:11;59.67;;;17.82;;
36963;SDS011;22878;48.616;35.326;2022-12-11T04:22:54;70.10;;;20.45;;
36963;SDS011;22878;48.616;35.326;2022-12-11T04:25:39;76.50;;;20.05;;
36963;SDS011;22878;48.616;35.326;2022-12-11T04:28:04;64.07;;;18.77;;
36963;SDS011;22878;48.616;35.326;2022-12-11T04:30:30;62.93;;;20.17;;
36963;SDS011;22878;48.616;35.326;2022-12-11T04:32:55;67.85;;;19.95;;
36963;SDS011;22878;48.616;35.326;2022-12-11T04:35:21;58.65;;;19.75;;
36963;SDS011;22878;48.616;35.326;2022-12-11T04:37:47;60.73;;;17.10;;
36963;SDS011;22878;48.616;35.326;2022-12-11T04:40:13;59.88;;;18.42;;
36963;SDS011;22878;48.616;35.326;2022-12-11T04:42:39;69.07;;;19.60;;
36963;SDS011;22878;48.616;35.326;2022-12-11T04:45:05;64.45;;;19.20;;
36963;SDS011;22878;48.616;35.326;2022-12-11T04:50:23;69.60;;;18.98;;
36963;SDS011;22878;48.616;35.326;2022-12-11T04:52:48;111.70;;;26.15;;
36963;SDS011;22878;48.616;35.326;2022-12-11T04:55:14;81.87;;;22.17;;
36963;SDS011;22878;48.616;35.326;2022-12-11T04:57:39;65.65;;;19.00;;
36963;SDS011;22878;48.616;35.326;2022-12-11T05:00:07;66.40;;;18.57;;
36963;SDS011;22878;48.616;35.326;2022-12-11T05:05:35;66.35;;;17.05;;
36963;SDS011;22878;48.616;35.326;2022-12-11T05:08:00;50.88;;;16.20;;
36963;SDS011;22878;48.616;35.326;2022-12-11T05:10:26;47.48;;;15.80;;
36963;SDS011;22878;48.616;35.326;2022-12-11T05:12:51;52.20;;;16.48;;
36963;SDS011;22878;48.616;35.326;2022-12-11T05:15:17;53.45;;;16.15;;
36963;SDS011;22878;48.616;35.326;2022-12-11T05:17:42;62.20;;;18.02;;
36963;SDS011;22878;48.616;35.326;2022-12-11T05:20:08;56.25;;;17.02;;
36963;SDS011;22878;48.616;35.326;2022-12-11T05:22:35;67.72;;;19.02;;
36963;SDS011;22878;48.616;35.326;2022-12-11T05:25:00;79.15;;;20.35;;
36963;SDS011;22878;48.616;35.326;2022-12-11T05:27:26;66.95;;;19.40;;
36963;SDS011;22878;48.616;35.326;2022-12-11T05:29:51;77.27;;;20.75;;
36963;SDS011;22878;48.616;35.326;2022-12-11T05:32:17;54.83;;;17.82;;
36963;SDS011;22878;48.616;35.326;2022-12-11T05:34:42;71.15;;;20.20;;
36963;SDS011;22878;48.616;35.326;2022-12-11T05:37:08;80.45;;;20.32;;
36963;SDS011;22878;48.616;35.326;2022-12-11T05:39:34;73.17;;;19.98;;
36963;SDS011;22878;48.616;35.326;2022-12-11T05:41:59;94.50;;;24.80;;
36963;SDS011;22878;48.616;35.326;2022-12-11T05:44:25;84.55;;;23.15;;
36963;SDS011;22878;48.616;35.326;2022-12-11T05:46:51;106.35;;;26.45;;
36963;SDS011;22878;48.616;35.326;2022-12-11T05:49:16;91.12;;;26.12;;
36963;SDS011;22878;48.616;35.326;2022-12-11T05:51:42;95.45;;;26.10;;
36963;SDS011;22878;48.616;35.326;2022-12-11T05:54:08;82.15;;;24.07;;
36963;SDS011;22878;48.616;35.326;2022-12-11T05:56:33;80.55;;;23.22;;
36963;SDS011;22878;48.616;35.326;2022-12-11T05:58:59;82.22;;;22.32;;
36963;SDS011;22878;48.616;35.326;2022-12-11T06:01:29;84.25;;;23.00;;
36963;SDS011;22878;48.616;35.326;2022-12-11T06:18:06;80.53;;;23.47;;
36963;SDS011;22878;48.616;35.326;2022-12-11T06:20:32;76.25;;;22.42;;
36963;SDS011;22878;48.616;35.326;2022-12-11T06:22:58;72.65;;;21.15;;
36963;SDS011;22878;48.616;35.326;2022-12-11T06:25:24;71.77;;;22.15;;
36963;SDS011;22878;48.616;35.326;2022-12-11T06:27:50;71.17;;;21.45;;
36963;SDS011;22878;48.616;35.326;2022-12-11T06:30:15;66.25;;;21.45;;
36963;SDS011;22878;48.616;35.326;2022-12-11T06:32:41;68.35;;;21.37;;
36963;SDS011;22878;48.616;35.326;2022-12-11T06:35:07;79.42;;;21.23;;
36963;SDS011;22878;48.616;35.326;2022-12-11T06:37:33;77.65;;;21.57;;
36963;SDS011;22878;48.616;35.326;2022-12-11T06:39:59;72.15;;;22.40;;
36963;SDS011;22878;48.616;35.326;2022-12-11T06:42:24;63.60;;;20.95;;
36963;SDS011;22878;48.616;35.326;2022-12-11T06:44:50;69.40;;;21.10;;
36963;SDS011;22878;48.616;35.326;2022-12-11T06:47:15;83.87;;;22.52;;
36963;SDS011;22878;48.616;35.326;2022-12-11T06:49:40;65.67;;;20.45;;
36963;SDS011;22878;48.616;35.326;2022-12-11T06:52:06;60.75;;;19.92;;
36963;SDS011;22878;48.616;35.326;2022-12-11T06:54:31;58.02;;;19.82;;
36963;SDS011;22878;48.616;35.326;2022-12-11T06:56:57;55.70;;;19.90;;
36963;SDS011;22878;48.616;35.326;2022-12-11T06:59:22;59.40;;;19.55;;
36963;SDS011;22878;48.616;35.326;2022-12-11T07:01:48;64.62;;;20.60;;
36963;SDS011;22878;48.616;35.326;2022-12-11T07:04:14;61.73;;;20.70;;
36963;SDS011;22878;48.616;35.326;2022-12-11T07:06:39;68.30;;;20.72;;
36963;SDS011;22878;48.616;35.326;2022-12-11T07:09:05;54.53;;;19.77;;
36963;SDS011;22878;48.616;35.326;2022-12-11T07:11:30;52.38;;;18.40;;
36963;SDS011;22878;48.616;35.326;2022-12-11T07:13:59;51.90;;;18.65;;
36963;SDS011;22878;48.616;35.326;2022-12-11T07:16:27;56.40;;;19.62;;
36963;SDS011;22878;48.616;35.326;2022-12-11T07:18:53;53.95;;;19.48;;
36963;SDS011;22878;48.616;35.326;2022-12-11T07:21:19;53.02;;;18.02;;
36963;SDS011;22878;48.616;35.326;2022-12-11T07:23:45;55.33;;;18.27;;
36963;SDS011;22878;48.616;35.326;2022-12-11T07:26:12;61.53;;;19.48;;
36963;SDS011;22878;48.616;35.326;2022-12-11T07:28:38;55.80;;;19.25;;
36963;SDS011;22878;48.616;35.326;2022-12-11T07:37:09;49.20;;;18.00;;
36963;SDS011;22878;48.616;35.326;2022-12-11T07:39:35;51.58;;;18.02;;
36963;SDS011;22878;48.616;35.326;2022-12-11T07:42:00;48.25;;;17.45;;
36963;SDS011;22878;48.616;35.326;2022-12-11T07:44:26;45.75;;;17.23;;
36963;SDS011;22878;48.616;35.326;2022-12-11T07:49:54;49.48;;;17.57;;
36963;SDS011;22878;48.616;35.326;2022-12-11T07:52:20;53.95;;;18.02;;
36963;SDS011;22878;48.616;35.326;2022-12-11T07:54:46;54.63;;;18.70;;
36963;SDS011;22878;48.616;35.326;2022-12-11T07:57:11;46.80;;;16.45;;
36963;SDS011;22878;48.616;35.326;2022-12-11T07:59:37;51.73;;;17.73;;
36963;SDS011;22878;48.616;35.326;2022-12-11T08:02:02;48.92;;;17.87;;
36963;SDS011;22878;48.616;35.326;2022-12-11T08:04:27;51.98;;;16.77;;
36963;SDS011;22878;48.616;35.326;2022-12-11T08:06:53;48.60;;;16.82;;
36963;SDS011;22878;48.616;35.326;2022-12-11T08:09:18;50.88;;;17.73;;
36963;SDS011;22878;48.616;35.326;2022-12-11T08:11:47;55.60;;;17.40;;
36963;SDS011;22878;48.616;35.326;2022-12-11T08:14:12;47.03;;;15.88;;
36963;SDS011;22878;48.616;35.326;2022-12-11T08:16:38;45.05;;;17.15;;
36963;SDS011;22878;48.616;35.326;2022-12-11T08:19:05;52.90;;;17.65;;
36963;SDS011;22878;48.616;35.326;2022-12-11T08:21:30;48.13;;;17.37;;
36963;SDS011;22878;48.616;35.326;2022-12-11T08:23:56;57.53;;;18.80;;
36963;SDS011;22878;48.616;35.326;2022-12-11T08:26:26;60.38;;;17.65;;
36963;SDS011;22878;48.616;35.326;2022-12-11T08:28:52;46.80;;;17.42;;
36963;SDS011;22878;48.616;35.326;2022-12-11T08:31:17;43.85;;;15.83;;
36963;SDS011;22878;48.616;35.326;2022-12-11T08:33:43;48.23;;;16.25;;
36963;SDS011;22878;48.616;35.326;2022-12-11T08:36:11;42.58;;;15.65;;
36963;SDS011;22878;48.616;35.326;2022-12-11T08:38:37;50.10;;;16.23;;
36963;SDS011;22878;48.616;35.326;2022-12-11T08:43:36;51.75;;;16.93;;
36963;SDS011;22878;48.616;35.326;2022-12-11T08:46:01;50.78;;;18.32;;
36963;SDS011;22878;48.616;35.326;2022-12-11T08:48:27;48.23;;;17.00;;
36963;SDS011;22878;48.616;35.326;2022-12-11T08:50:53;47.08;;;16.70;;
36963;SDS011;22878;48.616;35.326;2022-12-11T08:56:21;45.43;;;15.68;;
36963;SDS011;22878;48.616;35.326;2022-12-11T08:58:47;47.65;;;16.97;;
36963;SDS011;22878;48.616;35.326;2022-12-11T09:03:41;50.20;;;16.87;;
36963;SDS011;22878;48.616;35.326;2022-12-11T09:06:07;52.98;;;17.02;;
36963;SDS011;22878;48.616;35.326;2022-12-11T09:11:36;44.90;;;17.77;;
36963;SDS011;22878;48.616;35.326;2022-12-11T09:14:02;46.33;;;15.55;;
36963;SDS011;22878;48.616;35.326;2022-12-11T09:16:28;51.63;;;16.27;;
36963;SDS011;22878;48.616;35.326;2022-12-11T09:18:54;48.33;;;16.48;;
36963;SDS011;22878;48.616;35.326;2022-12-11T09:21:20;35.17;;;14.38;;
36963;SDS011;22878;48.616;35.326;2022-12-11T09:23:47;38.13;;;14.25;;
36963;SDS011;22878;48.616;35.326;2022-12-11T09:26:13;44.05;;;15.95;;
36963;SDS011;22878;48.616;35.326;2022-12-11T09:28:39;42.10;;;14.90;;
36963;SDS011;22878;48.616;35.326;2022-12-11T09:33:32;42.25;;;14.85;;
36963;SDS011;22878;48.616;35.326;2022-12-11T09:35:58;43.20;;;14.85;;
36963;SDS011;22878;48.616;35.326;2022-12-11T09:38:24;47.58;;;15.10;;
36963;SDS011;22878;48.616;35.326;2022-12-11T09:40:50;39.98;;;14.03;;
36963;SDS011;22878;48.616;35.326;2022-12-11T09:45:58;38.02;;;14.60;;
36963;SDS011;22878;48.616;35.326;2022-12-11T09:48:25;45.92;;;14.45;;
36963;SDS011;22878;48.616;35.326;2022-12-11T09:50:52;44.05;;;14.38;;
36963;SDS011;22878;48.616;35.326;2022-12-11T09:53:23;39.98;;;13.68;;
36963;SDS011;22878;48.616;35.326;2022-12-11T09:56:05;42.35;;;14.10;;
36963;SDS011;22878;48.616;35.326;2022-12-11T09:58:38;40.40;;;13.45;;
36963;SDS011;22878;48.616;35.326;2022-12-11T10:14:40;41.73;;;15.03;;
36963;SDS011;22878;48.616;35.326;2022-12-11T10:19:55;36.05;;;14.15;;
36963;SDS011;22878;48.616;35.326;2022-12-11T10:22:22;33.95;;;13.20;;
36963;SDS011;22878;48.616;35.326;2022-12-11T10:27:51;39.00;;;12.23;;
36963;SDS011;22878;48.616;35.326;2022-12-11T10:32:59;35.60;;;13.03;;
36963;SDS011;22878;48.616;35.326;2022-12-11T10:40:58;34.78;;;12.73;;
36963;SDS011;22878;48.616;35.326;2022-12-11T10:46:00;32.28;;;12.88;;
36963;SDS011;22878;48.616;35.326;2022-12-11T10:48:25;39.18;;;12.28;;
36963;SDS011;22878;48.616;35.326;2022-12-11T10:50:58;32.58;;;11.05;;
36963;SDS011;22878;48.616;35.326;2022-12-11T10:53:21;29.85;;;11.90;;
36963;SDS011;22878;48.616;35.326;2022-12-11T10:55:47;27.98;;;11.60;;
36963;SDS011;22878;48.616;35.326;2022-12-11T10:58:17;30.43;;;11.20;;
36963;SDS011;22878;48.616;35.326;2022-12-11T11:03:54;31.23;;;10.93;;
36963;SDS011;22878;48.616;35.326;2022-12-11T11:08:45;31.37;;;11.30;;
36963;SDS011;22878;48.616;35.326;2022-12-11T11:14:18;30.90;;;10.32;;
36963;SDS011;22878;48.616;35.326;2022-12-11T11:16:44;32.40;;;11.15;;
36963;SDS011;22878;48.616;35.326;2022-12-11T11:25:17;31.05;;;12.18;;
36963;SDS011;22878;48.616;35.326;2022-12-11T11:27:54;34.60;;;12.28;;
36963;SDS011;22878;48.616;35.326;2022-12-11T11:32:47;27.37;;;10.28;;
36963;SDS011;22878;48.616;35.326;2022-12-11T11:35:16;27.02;;;10.08;;
36963;SDS011;22878;48.616;35.326;2022-12-11T11:37:46;33.50;;;10.63;;
36963;SDS011;22878;48.616;35.326;2022-12-11T11:40:21;26.62;;;10.48;;
36963;SDS011;22878;48.616;35.326;2022-12-11T11:42:54;31.57;;;10.40;;
36963;SDS011;22878;48.616;35.326;2022-12-11T11:45:14;25.32;;;10.00;;
36963;SDS011;22878;48.616;35.326;2022-12-11T11:47:43;26.77;;;10.82;;
36963;SDS011;22878;48.616;35.326;2022-12-11T11:50:15;23.18;;;9.68;;
36963;SDS011;22878;48.616;35.326;2022-12-11T12:08:59;26.95;;;9.83;;
36963;SDS011;22878;48.616;35.326;2022-12-11T12:11:30;30.25;;;10.53;;
36963;SDS011;22878;48.616;35.326;2022-12-11T12:16:28;20.50;;;9.15;;
36963;SDS011;22878;48.616;35.326;2022-12-11T12:26:36;24.80;;;8.75;;
36963;SDS011;22878;48.616;35.326;2022-12-11T12:34:26;21.60;;;9.48;;
36963;SDS011;22878;48.616;35.326;2022-12-11T12:36:58;25.12;;;8.75;;
36963;SDS011;22878;48.616;35.326;2022-12-11T12:42:11;25.60;;;9.38;;
36963;SDS011;22878;48.616;35.326;2022-12-11T12:44:40;26.75;;;9.18;;
36963;SDS011;22878;48.616;35.326;2022-12-11T12:52:01;23.73;;;9.28;;
36963;SDS011;22878;48.616;35.326;2022-12-11T12:54:28;24.70;;;9.98;;
36963;SDS011;22878;48.616;35.326;2022-12-11T12:56:55;30.00;;;9.00;;
36963;SDS011;22878;48.616;35.326;2022-12-11T12:59:22;26.10;;;10.23;;
36963;SDS011;22878;48.616;35.326;2022-12-11T13:06:55;29.10;;;9.53;;
36963;SDS011;22878;48.616;35.326;2022-12-11T13:09:22;25.88;;;9.43;;
36963;SDS011;22878;48.616;35.326;2022-12-11T13:11:48;23.55;;;8.30;;
36963;SDS011;22878;48.616;35.326;2022-12-11T13:16:46;25.75;;;9.63;;
36963;SDS011;22878;48.616;35.326;2022-12-11T13:22:19;22.07;;;8.53;;
36963;SDS011;22878;48.616;35.326;2022-12-11T16:39:11;33.48;;;11.18;;
36963;SDS011;22878;48.616;35.326;2022-12-11T16:41:37;32.98;;;11.48;;
36963;SDS011;22878;48.616;35.326;2022-12-11T16:44:04;33.92;;;10.68;;
36963;SDS011;22878;48.616;35.326;2022-12-11T16:46:30;28.83;;;10.72;;
36963;SDS011;22878;48.616;35.326;2022-12-11T16:48:57;26.12;;;10.55;;
36963;SDS011;22878;48.616;35.326;2022-12-11T16:51:23;24.25;;;9.63;;
36963;SDS011;22878;48.616;35.326;2022-12-11T16:53:49;23.95;;;10.35;;
36963;SDS011;22878;48.616;35.326;2022-12-11T16:56:15;32.75;;;10.70;;
36963;SDS011;22878;48.616;35.326;2022-12-11T16:58:41;24.90;;;10.20;;
36963;SDS011;22878;48.616;35.326;2022-12-11T17:01:09;24.30;;;9.00;;
36963;SDS011;22878;48.616;35.326;2022-12-11T17:03:37;31.07;;;10.70;;
36963;SDS011;22878;48.616;35.326;2022-12-11T17:06:08;29.50;;;10.78;;
36963;SDS011;22878;48.616;35.326;2022-12-11T17:08:36;28.87;;;10.78;;
36963;SDS011;22878;48.616;35.326;2022-12-11T17:11:04;27.10;;;10.15;;
36963;SDS011;22878;48.616;35.326;2022-12-11T17:13:32;28.67;;;10.08;;
36963;SDS011;22878;48.616;35.326;2022-12-11T17:15:59;30.55;;;11.28;;
36963;SDS011;22878;48.616;35.326;2022-12-11T17:18:30;30.02;;;11.35;;
36963;SDS011;22878;48.616;35.326;2022-12-11T17:20:56;27.58;;;10.50;;
36963;SDS011;22878;48.616;35.326;2022-12-11T17:23:23;27.13;;;10.58;;
36963;SDS011;22878;48.616;35.326;2022-12-11T17:25:50;27.87;;;10.60;;
36963;SDS011;22878;48.616;35.326;2022-12-11T17:28:16;27.05;;;10.60;;
36963;SDS011;22878;48.616;35.326;2022-12-11T17:30:43;30.72;;;10.05;;
36963;SDS011;22878;48.616;35.326;2022-12-11T17:33:10;25.70;;;10.15;;
36963;SDS011;22878;48.616;35.326;2022-12-11T17:35:36;28.95;;;10.78;;
36963;SDS011;22878;48.616;35.326;2022-12-11T17:38:03;31.75;;;10.35;;
36963;SDS011;22878;48.616;35.326;2022-12-11T17:40:29;29.57;;;11.05;;
36963;SDS011;22878;48.616;35.326;2022-12-11T17:42:55;35.73;;;11.40;;
36963;SDS011;22878;48.616;35.326;2022-12-11T17:45:22;27.58;;;10.50;;
36963;SDS011;22878;48.616;35.326;2022-12-11T17:47:48;26.62;;;9.55;;
36963;SDS011;22878;48.616;35.326;2022-12-11T17:50:14;32.05;;;10.53;;
36963;SDS011;22878;48.616;35.326;2022-12-11T17:52:40;27.52;;;10.53;;
36963;SDS011;22878;48.616;35.326;2022-12-11T17:55:07;26.27;;;10.35;;
36963;SDS011;22878;48.616;35.326;2022-12-11T17:57:33;26.05;;;10.80;;
36963;SDS011;22878;48.616;35.326;2022-12-11T18:00:02;28.25;;;10.88;;
36963;SDS011;22878;48.616;35.326;2022-12-11T18:02:29;38.15;;;11.68;;
36963;SDS011;22878;48.616;35.326;2022-12-11T18:04:55;25.35;;;9.38;;
36963;SDS011;22878;48.616;35.326;2022-12-11T18:07:22;32.28;;;11.18;;
36963;SDS011;22878;48.616;35.326;2022-12-11T18:09:49;28.10;;;10.28;;
36963;SDS011;22878;48.616;35.326;2022-12-11T18:12:15;27.98;;;10.50;;
36963;SDS011;22878;48.616;35.326;2022-12-11T18:14:41;30.90;;;10.13;;
36963;SDS011;22878;48.616;35.326;2022-12-11T18:17:07;30.92;;;10.43;;
36963;SDS011;22878;48.616;35.326;2022-12-11T18:19:33;31.90;;;11.22;;
36963;SDS011;22878;48.616;35.326;2022-12-11T18:22:00;33.55;;;10.55;;
36963;SDS011;22878;48.616;35.326;2022-12-11T18:24:26;37.67;;;11.25;;
36963;SDS011;22878;48.616;35.326;2022-12-11T18:26:54;32.75;;;11.48;;
36963;SDS011;22878;48.616;35.326;2022-12-11T18:29:20;30.88;;;10.88;;
36963;SDS011;22878;48.616;35.326;2022-12-11T18:31:46;33.80;;;11.73;;
36963;SDS011;22878;48.616;35.326;2022-12-11T18:34:12;29.00;;;11.45;;
36963;SDS011;22878;48.616;35.326;2022-12-11T18:36:38;33.08;;;11.90;;
36963;SDS011;22878;48.616;35.326;2022-12-11T18:39:04;38.60;;;10.48;;
36963;SDS011;22878;48.616;35.326;2022-12-11T18:41:31;34.78;;;11.48;;
36963;SDS011;22878;48.616;35.326;2022-12-11T18:43:58;33.23;;;11.15;;
36963;SDS011;22878;48.616;35.326;2022-12-11T18:46:26;31.55;;;11.70;;
36963;SDS011;22878;48.616;35.326;2022-12-11T18:48:53;28.83;;;10.93;;
36963;SDS011;22878;48.616;35.326;2022-12-11T18:51:21;27.93;;;10.88;;
36963;SDS011;22878;48.616;35.326;2022-12-11T18:53:48;34.55;;;11.38;;
36963;SDS011;22878;48.616;35.326;2022-12-11T18:56:15;34.38;;;11.30;;
36963;SDS011;22878;48.616;35.326;2022-12-11T18:58:43;34.60;;;11.12;;
36963;SDS011;22878;48.616;35.326;2022-12-11T19:03:48;33.55;;;10.88;;
36963;SDS011;22878;48.616;35.326;2022-12-11T19:06:16;32.90;;;12.58;;
36963;SDS011;22878;48.616;35.326;2022-12-11T19:08:45;33.30;;;11.28;;
36963;SDS011;22878;48.616;35.326;2022-12-11T19:11:15;32.73;;;11.03;;
36963;SDS011;22878;48.616;35.326;2022-12-11T19:13:44;33.33;;;12.40;;
36963;SDS011;22878;48.616;35.326;2022-12-11T19:16:17;32.50;;;10.88;;
36963;SDS011;22878;48.616;35.326;2022-12-11T19:18:54;31.55;;;11.45;;
36963;SDS011;22878;48.616;35.326;2022-12-11T19:21:23;35.45;;;11.18;;
36963;SDS011;22878;48.616;35.326;2022-12-11T19:23:49;31.02;;;12.00;;
36963;SDS011;22878;48.616;35.326;2022-12-11T19:26:16;32.78;;;11.20;;
36963;SDS011;22878;48.616;35.326;2022-12-11T19:28:44;37.58;;;11.83;;
36963;SDS011;22878;48.616;35.326;2022-12-11T19:31:14;34.78;;;11.68;;
36963;SDS011;22878;48.616;35.326;2022-12-11T19:33:43;32.90;;;11.28;;
36963;SDS011;22878;48.616;35.326;2022-12-11T19:36:14;33.40;;;11.73;;
36963;SDS011;22878;48.616;35.326;2022-12-11T19:38:44;35.40;;;11.83;;
36963;SDS011;22878;48.616;35.326;2022-12-11T19:41:17;33.95;;;12.07;;
36963;SDS011;22878;48.616;35.326;2022-12-11T19:43:47;37.90;;;12.63;;
36963;SDS011;22878;48.616;35.326;2022-12-11T19:46:14;30.48;;;11.88;;
36963;SDS011;22878;48.616;35.326;2022-12-11T19:48:41;39.98;;;11.48;;
36963;SDS011;22878;48.616;35.326;2022-12-11T19:53:39;30.97;;;11.45;;
36963;SDS011;22878;48.616;35.326;2022-12-11T19:56:07;33.33;;;11.73;;
36963;SDS011;22878;48.616;35.326;2022-12-11T19:58:33;36.77;;;10.95;;
36963;SDS011;22878;48.616;35.326;2022-12-11T20:01:00;31.97;;;10.40;;
36963;SDS011;22878;48.616;35.326;2022-12-11T20:03:26;36.98;;;11.68;;
36963;SDS011;22878;48.616;35.326;2022-12-11T20:08:29;35.60;;;12.73;;
36963;SDS011;22878;48.616;35.326;2022-12-11T20:10:57;81.70;;;30.90;;
36963;SDS011;22878;48.616;35.326;2022-12-11T20:13:32;63.92;;;23.07;;
36963;SDS011;22878;48.616;35.326;2022-12-11T20:15:58;95.25;;;31.35;;
36963;SDS011;22878;48.616;35.326;2022-12-11T20:18:25;77.55;;;27.30;;
36963;SDS011;22878;48.616;35.326;2022-12-11T20:20:51;75.42;;;26.55;;
36963;SDS011;22878;48.616;35.326;2022-12-11T20:23:17;62.10;;;22.85;;
36963;SDS011;22878;48.616;35.326;2022-12-11T20:25:43;70.75;;;24.90;;